createdAt,value
2019-02-24T00:01:50.473Z,13.72
2019-02-24T00:04:19.568Z,13.55
2019-02-24T00:06:48.734Z,13.00
2019-02-24T00:09:17.823Z,12.58
2019-02-24T00:11:46.933Z,12.88
2019-02-24T00:14:16.111Z,12.73
2019-02-24T00:16:45.207Z,12.07
2019-02-24T00:19:14.361Z,12.35
2019-02-24T00:21:43.515Z,11.00
2019-02-24T00:24:12.693Z,11.85
2019-02-24T00:26:41.837Z,12.85
2019-02-24T00:29:10.988Z,12.23
2019-02-24T00:31:40.139Z,12.53
2019-02-24T00:34:09.275Z,11.85
2019-02-24T00:36:38.403Z,12.53
2019-02-24T00:39:07.495Z,10.85
2019-02-24T00:41:36.675Z,12.25
2019-02-24T00:44:05.795Z,12.07
2019-02-24T00:46:34.908Z,13.55
2019-02-24T00:49:04.023Z,13.40
2019-02-24T00:51:33.148Z,12.23
2019-02-24T00:54:02.266Z,11.80
2019-02-24T00:56:31.394Z,12.82
2019-02-24T00:59:00.518Z,11.63
2019-02-24T01:01:29.606Z,12.50
2019-02-24T01:03:58.779Z,12.80
2019-02-24T01:06:27.876Z,12.90
2019-02-24T01:08:57.063Z,12.33
2019-02-24T01:11:26.247Z,13.58
2019-02-24T01:13:55.343Z,11.80
2019-02-24T01:16:24.441Z,13.28
2019-02-24T01:18:53.536Z,13.72
2019-02-24T01:21:22.706Z,13.18
2019-02-24T01:23:51.817Z,13.88
2019-02-24T01:26:20.918Z,15.70
2019-02-24T01:28:50.015Z,12.65
2019-02-24T01:31:19.104Z,14.05
2019-02-24T01:33:48.211Z,13.32
2019-02-24T01:36:17.328Z,12.13
2019-02-24T01:38:46.426Z,13.22
2019-02-24T01:41:15.507Z,13.53
2019-02-24T01:43:44.618Z,14.03
2019-02-24T01:46:13.781Z,12.88
2019-02-24T01:48:42.932Z,13.65
2019-02-24T01:51:12.107Z,13.28
2019-02-24T01:53:41.274Z,13.83
2019-02-24T01:56:10.889Z,12.25
2019-02-24T01:58:40.053Z,12.93
2019-02-24T02:01:09.183Z,13.90
2019-02-24T02:03:38.268Z,12.47
2019-02-24T02:06:07.459Z,14.28
2019-02-24T02:08:36.588Z,13.48
2019-02-24T02:11:05.758Z,13.20
2019-02-24T02:13:34.963Z,13.10
2019-02-24T02:16:04.158Z,13.18
2019-02-24T02:18:33.268Z,14.10
2019-02-24T02:21:02.375Z,13.85
2019-02-24T02:23:31.508Z,13.10
2019-02-24T02:26:00.620Z,14.20
2019-02-24T02:28:29.704Z,13.10
2019-02-24T02:30:58.809Z,13.35
2019-02-24T02:33:27.920Z,12.98
2019-02-24T02:35:57.059Z,12.58
2019-02-24T02:38:26.166Z,13.72
2019-02-24T02:40:55.268Z,11.60
2019-02-24T02:43:24.363Z,12.35
2019-02-24T02:45:53.541Z,12.98
2019-02-24T02:48:22.733Z,12.58
2019-02-24T02:50:51.929Z,12.10
2019-02-24T02:53:21.049Z,14.05
2019-02-24T02:55:50.244Z,12.13
2019-02-24T02:58:19.354Z,12.30
2019-02-24T03:00:48.548Z,13.10
2019-02-24T03:03:17.633Z,13.15
2019-02-24T03:05:58.449Z,13.53
2019-02-24T03:08:55.816Z,13.53
2019-02-24T03:11:24.929Z,13.48
2019-02-24T03:13:54.023Z,14.53
2019-02-24T03:16:26.287Z,14.58
2019-02-24T03:18:55.428Z,12.75
2019-02-24T03:21:24.636Z,12.55
2019-02-24T03:23:53.820Z,12.33
2019-02-24T03:26:23.000Z,11.88
2019-02-24T03:28:52.116Z,12.73
2019-02-24T03:31:21.244Z,12.25
2019-02-24T03:33:50.377Z,13.10
2019-02-24T03:36:19.483Z,12.20
2019-02-24T03:38:48.653Z,13.18
2019-02-24T03:41:17.749Z,11.95
2019-02-24T03:43:46.984Z,12.73
2019-02-24T03:46:16.195Z,12.58
2019-02-24T03:48:45.318Z,11.00
2019-02-24T03:51:14.463Z,12.93
2019-02-24T03:53:43.719Z,14.15
2019-02-24T03:56:12.912Z,13.53
2019-02-24T03:58:42.173Z,12.25
2019-02-24T04:01:11.526Z,12.80
2019-02-24T04:03:40.924Z,12.78
2019-02-24T04:06:10.119Z,11.75
2019-02-24T04:08:39.229Z,12.35
2019-02-24T04:11:08.355Z,13.05
2019-02-24T04:13:37.443Z,14.18
2019-02-24T04:16:06.636Z,13.03
2019-02-24T04:18:35.732Z,13.68
2019-02-24T04:21:04.995Z,13.08
2019-02-24T04:23:34.175Z,14.00
2019-02-24T04:26:03.376Z,13.65
2019-02-24T04:28:32.545Z,13.40
2019-02-24T04:31:01.680Z,11.20
2019-02-24T04:33:30.869Z,12.50
2019-02-24T04:35:59.976Z,11.48
2019-02-24T04:38:29.063Z,11.80
2019-02-24T04:40:58.191Z,13.10
2019-02-24T04:43:27.291Z,11.18
2019-02-24T04:45:56.471Z,13.50
2019-02-24T04:48:25.652Z,12.10
2019-02-24T04:50:54.832Z,12.00
2019-02-24T04:53:24.024Z,13.90
2019-02-24T04:55:53.148Z,13.13
2019-02-24T04:58:22.239Z,12.68
2019-02-24T05:00:51.359Z,12.95
2019-02-24T05:03:20.468Z,13.65
2019-02-24T05:05:49.572Z,13.90
2019-02-24T05:08:18.778Z,13.00
2019-02-24T05:10:47.983Z,12.58
2019-02-24T05:13:17.157Z,11.60
2019-02-24T05:15:46.263Z,12.65
2019-02-24T05:18:15.371Z,12.65
2019-02-24T05:20:44.625Z,14.78
2019-02-24T05:23:13.818Z,12.55
2019-02-24T05:25:43.014Z,13.38
2019-02-24T05:28:12.192Z,12.78
2019-02-24T05:30:41.300Z,12.65
2019-02-24T05:33:10.401Z,13.48
2019-02-24T05:35:39.523Z,13.03
2019-02-24T05:38:08.636Z,13.40
2019-02-24T05:40:37.760Z,11.83
2019-02-24T05:43:06.929Z,14.65
2019-02-24T05:45:36.026Z,12.43
2019-02-24T05:48:05.297Z,13.98
2019-02-24T05:50:34.402Z,12.65
2019-02-24T05:53:03.536Z,12.25
2019-02-24T05:55:32.735Z,12.75
2019-02-24T05:58:01.931Z,15.23
2019-02-24T06:00:31.040Z,12.75
2019-02-24T06:03:00.236Z,12.65
2019-02-24T06:05:29.507Z,13.65
2019-02-24T06:07:58.680Z,12.13
2019-02-24T06:10:27.783Z,13.60
2019-02-24T06:12:56.900Z,12.45
2019-02-24T06:15:26.042Z,13.00
2019-02-24T06:17:55.197Z,12.98
2019-02-24T06:20:24.292Z,13.45
2019-02-24T06:22:53.430Z,13.10
2019-02-24T06:25:22.910Z,12.70
2019-02-24T06:27:52.190Z,12.80
2019-02-24T06:30:21.377Z,12.45
2019-02-24T06:32:50.569Z,13.72
2019-02-24T06:35:19.667Z,13.50
2019-02-24T06:37:48.827Z,13.15
2019-02-24T06:40:18.073Z,12.28
2019-02-24T06:42:47.192Z,14.85
2019-02-24T06:45:16.306Z,13.53
2019-02-24T06:47:45.424Z,20.32
2019-02-24T06:50:14.580Z,12.43
2019-02-24T06:52:43.693Z,20.35
2019-02-24T06:55:12.870Z,13.32
2019-02-24T06:57:41.997Z,12.25
2019-02-24T07:00:14.020Z,11.50
2019-02-24T07:02:42.456Z,11.97
2019-02-24T07:05:13.136Z,12.40
2019-02-24T07:07:42.307Z,13.62
2019-02-24T07:10:11.441Z,12.70
2019-02-24T07:12:43.802Z,13.90
2019-02-24T07:15:13.031Z,11.18
2019-02-24T07:17:42.162Z,11.93
2019-02-24T07:20:11.328Z,12.47
2019-02-24T07:22:40.517Z,11.22
2019-02-24T07:25:09.844Z,15.70
2019-02-24T07:27:39.145Z,12.73
2019-02-24T07:30:08.811Z,12.70
2019-02-24T07:32:37.979Z,13.13
2019-02-24T07:35:07.194Z,12.37
2019-02-24T07:37:36.331Z,14.20
2019-02-24T07:40:05.671Z,13.08
2019-02-24T07:42:34.776Z,12.63
2019-02-24T07:45:05.172Z,11.60
2019-02-24T07:47:34.392Z,12.60
2019-02-24T07:50:03.676Z,12.95
2019-02-24T07:52:32.837Z,12.03
2019-02-24T07:55:02.055Z,12.98
2019-02-24T07:57:31.195Z,13.58
2019-02-24T08:00:00.340Z,11.68
2019-02-24T08:02:29.487Z,13.05
2019-02-24T08:04:58.704Z,11.95
2019-02-24T08:07:27.915Z,12.60
2019-02-24T08:09:57.024Z,12.98
2019-02-24T08:12:29.456Z,11.83
2019-02-24T08:14:58.608Z,13.05
2019-02-24T08:17:27.747Z,13.90
2019-02-24T08:19:56.892Z,12.37
2019-02-24T08:22:26.039Z,13.35
2019-02-24T08:24:55.140Z,12.18
2019-02-24T08:27:24.250Z,12.50
2019-02-24T08:29:53.456Z,11.88
2019-02-24T08:32:22.563Z,11.70
2019-02-24T08:34:53.093Z,11.88
2019-02-24T08:37:22.447Z,12.43
2019-02-24T08:39:51.565Z,10.30
2019-02-24T08:42:20.691Z,12.07
2019-02-24T08:44:49.789Z,13.48
2019-02-24T08:47:18.968Z,12.13
2019-02-24T08:49:48.144Z,11.55
2019-02-24T08:52:30.202Z,12.23
2019-02-24T08:54:59.402Z,12.65
2019-02-24T08:57:28.528Z,11.80
2019-02-24T08:59:57.623Z,12.30
2019-02-24T09:02:26.773Z,12.18
2019-02-24T09:04:55.901Z,11.08
2019-02-24T09:07:25.125Z,11.88
2019-02-24T09:09:54.300Z,11.57
2019-02-24T09:12:23.476Z,11.25
2019-02-24T09:14:52.575Z,12.03
2019-02-24T09:17:21.679Z,13.65
2019-02-24T09:19:50.859Z,11.63
2019-02-24T09:22:20.108Z,12.05
2019-02-24T09:24:49.327Z,14.13
2019-02-24T09:27:18.457Z,12.45
2019-02-24T09:29:47.615Z,12.35
2019-02-24T09:32:17.080Z,14.75
2019-02-24T09:34:46.217Z,13.25
2019-02-24T09:37:15.415Z,12.85
2019-02-24T09:39:44.565Z,13.13
2019-02-24T09:42:13.668Z,12.98
2019-02-24T09:44:42.792Z,13.43
2019-02-24T09:47:11.973Z,13.35
2019-02-24T09:49:41.160Z,12.98
2019-02-24T09:52:10.244Z,13.03
2019-02-24T09:54:39.371Z,11.30
2019-02-24T09:57:08.530Z,12.80
2019-02-24T09:59:37.652Z,12.63
2019-02-24T10:02:06.758Z,12.43
2019-02-24T10:04:35.890Z,11.90
2019-02-24T10:07:05.071Z,10.75
2019-02-24T10:09:34.171Z,11.50
2019-02-24T10:12:03.276Z,12.18
2019-02-24T10:14:32.428Z,11.95
2019-02-24T10:17:01.695Z,13.15
2019-02-24T10:19:31.313Z,12.60
2019-02-24T10:22:00.597Z,13.25
2019-02-24T10:24:29.756Z,12.85
2019-02-24T10:26:58.983Z,12.00
2019-02-24T10:29:28.207Z,11.68
2019-02-24T10:31:57.333Z,12.28
2019-02-24T10:34:26.459Z,12.53
2019-02-24T10:36:55.651Z,11.88
2019-02-24T10:39:29.660Z,11.63
2019-02-24T10:41:55.592Z,12.37
2019-02-24T10:44:24.676Z,12.60
2019-02-24T10:46:53.842Z,12.37
2019-02-24T10:49:23.076Z,10.50
2019-02-24T10:51:52.327Z,10.60
2019-02-24T10:54:21.447Z,12.47
2019-02-24T10:56:50.657Z,11.18
2019-02-24T10:59:19.788Z,12.30
2019-02-24T11:01:48.960Z,10.25
2019-02-24T11:04:18.172Z,10.70
2019-02-24T11:06:47.306Z,11.03
2019-02-24T11:09:18.886Z,10.08
2019-02-24T11:11:56.903Z,9.73
2019-02-24T11:14:26.155Z,10.93
2019-02-24T11:16:55.344Z,11.00
2019-02-24T11:19:24.484Z,10.28
2019-02-24T11:21:53.715Z,11.12
2019-02-24T11:24:22.866Z,11.03
2019-02-24T11:26:52.005Z,9.40
2019-02-24T11:29:21.099Z,9.80
2019-02-24T11:31:50.195Z,7.08
2019-02-24T11:34:23.946Z,7.92
2019-02-24T11:36:53.092Z,8.30
2019-02-24T11:39:22.182Z,8.43
2019-02-24T11:41:51.540Z,7.80
2019-02-24T11:44:20.664Z,7.53
2019-02-24T11:46:49.977Z,7.40
2019-02-24T11:49:19.121Z,8.55
2019-02-24T11:51:48.275Z,8.18
2019-02-24T11:54:17.479Z,8.98
2019-02-24T11:56:46.805Z,8.25
2019-02-24T11:59:16.028Z,8.20
2019-02-24T12:01:47.610Z,7.45
2019-02-24T12:04:16.189Z,8.10
2019-02-24T12:06:45.299Z,7.80
2019-02-24T12:09:14.595Z,7.85
2019-02-24T12:11:43.776Z,7.47
2019-02-24T12:14:12.922Z,7.67
2019-02-24T12:16:42.024Z,7.47
2019-02-24T12:19:11.134Z,7.30
2019-02-24T12:21:40.363Z,7.25
2019-02-24T12:24:09.532Z,6.03
2019-02-24T12:26:38.652Z,6.35
2019-02-24T12:29:07.819Z,6.58
2019-02-24T12:31:36.947Z,7.53
2019-02-24T12:34:06.309Z,6.22
2019-02-24T12:36:35.397Z,6.40
2019-02-24T12:39:05.563Z,5.85
2019-02-24T12:41:34.643Z,6.17
2019-02-24T12:44:03.853Z,5.95
2019-02-24T12:46:33.030Z,6.53
2019-02-24T12:49:02.266Z,7.00
2019-02-24T12:51:31.554Z,6.35
2019-02-24T12:54:00.860Z,5.97
2019-02-24T12:56:29.964Z,5.97
2019-02-24T12:58:59.217Z,5.40
2019-02-24T13:01:28.464Z,5.95
2019-02-24T13:03:57.691Z,5.62
2019-02-24T13:06:26.961Z,6.00
2019-02-24T13:08:56.140Z,5.58
2019-02-24T13:11:25.256Z,6.10
2019-02-24T13:13:54.363Z,5.60
2019-02-24T13:16:23.571Z,5.87
2019-02-24T13:18:52.846Z,5.65
2019-02-24T13:21:22.052Z,5.87
2019-02-24T13:23:51.158Z,5.87
2019-02-24T13:26:20.556Z,5.87
2019-02-24T13:28:50.717Z,5.25
2019-02-24T13:31:20.029Z,5.58
2019-02-24T13:33:49.280Z,6.60
2019-02-24T13:36:18.364Z,6.22
2019-02-24T13:38:47.470Z,6.17
2019-02-24T13:41:16.657Z,5.55
2019-02-24T13:43:45.850Z,6.30
2019-02-24T13:46:14.935Z,5.70
2019-02-24T13:48:44.069Z,6.83
2019-02-24T13:51:13.237Z,6.55
2019-02-24T13:53:42.311Z,7.05
2019-02-24T13:56:11.414Z,6.78
2019-02-24T13:58:40.628Z,6.60
2019-02-24T14:01:09.755Z,7.20
2019-02-24T14:03:38.933Z,6.67
2019-02-24T14:06:08.052Z,7.40
2019-02-24T14:08:37.135Z,6.33
2019-02-24T14:11:06.372Z,5.97
2019-02-24T14:13:35.463Z,5.92
2019-02-24T14:16:04.769Z,6.62
2019-02-24T14:18:33.904Z,6.12
2019-02-24T14:21:03.024Z,6.70
2019-02-24T14:23:32.132Z,6.15
2019-02-24T14:26:01.289Z,6.10
2019-02-24T14:28:30.400Z,5.42
2019-02-24T14:30:59.508Z,5.45
2019-02-24T14:33:28.637Z,5.20
2019-02-24T14:35:57.799Z,6.35
2019-02-24T14:38:27.263Z,5.25
2019-02-24T14:40:56.432Z,5.50
2019-02-24T14:43:25.517Z,5.50
2019-02-24T14:45:54.710Z,8.30
2019-02-24T14:48:23.856Z,5.10
2019-02-24T14:50:53.212Z,6.25
2019-02-24T14:53:22.291Z,7.08
2019-02-24T14:55:51.417Z,6.20
2019-02-24T14:58:20.532Z,5.95
2019-02-24T15:00:49.675Z,5.17
2019-02-24T15:03:18.765Z,5.53
2019-02-24T15:05:47.877Z,5.45
2019-02-24T15:08:17.031Z,5.40
2019-02-24T15:10:48.232Z,5.12
2019-02-24T15:13:17.201Z,5.05
2019-02-24T15:15:46.376Z,5.53
2019-02-24T15:18:15.464Z,4.70
2019-02-24T15:20:44.543Z,4.65
2019-02-24T15:23:13.653Z,4.95
2019-02-24T15:25:42.943Z,5.70
2019-02-24T15:28:12.029Z,5.10
2019-02-24T15:30:41.128Z,4.67
2019-02-24T15:33:10.325Z,4.58
2019-02-24T15:35:39.479Z,5.37
2019-02-24T15:38:08.682Z,5.03
2019-02-24T15:40:37.875Z,5.90
2019-02-24T15:43:07.019Z,5.45
2019-02-24T15:45:36.191Z,6.03
2019-02-24T15:48:05.359Z,5.80
2019-02-24T15:50:34.456Z,5.12
2019-02-24T15:53:03.540Z,6.50
2019-02-24T15:55:32.637Z,5.15
2019-02-24T15:58:01.724Z,5.87
2019-02-24T16:00:31.000Z,6.60
2019-02-24T16:03:01.844Z,6.15
2019-02-24T16:05:30.983Z,5.85
2019-02-24T16:08:00.055Z,5.72
2019-02-24T16:10:29.188Z,5.00
2019-02-24T16:12:58.376Z,4.75
2019-02-24T16:15:27.694Z,6.03
2019-02-24T16:17:56.913Z,6.78
2019-02-24T16:20:26.284Z,6.95
2019-02-24T16:22:55.953Z,7.08
2019-02-24T16:25:25.070Z,9.83
2019-02-24T16:27:54.419Z,10.98
2019-02-24T16:30:23.534Z,8.83
2019-02-24T16:32:52.703Z,8.55
2019-02-24T16:35:21.807Z,7.28
2019-02-24T16:37:50.904Z,6.50
2019-02-24T16:40:20.063Z,6.37
2019-02-24T16:42:50.484Z,6.85
2019-02-24T16:45:19.940Z,6.83
2019-02-24T16:47:49.038Z,6.87
2019-02-24T16:50:18.339Z,7.67
2019-02-24T16:52:47.567Z,6.60
2019-02-24T16:55:16.835Z,6.17
2019-02-24T16:57:45.913Z,6.17
2019-02-24T17:00:17.522Z,6.05
2019-02-24T17:02:46.594Z,5.83
2019-02-24T17:05:15.828Z,7.83
2019-02-24T17:07:45.019Z,9.05
2019-02-24T17:10:16.011Z,12.90
2019-02-24T17:12:46.170Z,11.85
2019-02-24T17:15:15.327Z,10.30
2019-02-24T17:17:44.432Z,9.63
2019-02-24T17:20:15.620Z,10.90
2019-02-24T17:22:44.769Z,9.60
2019-02-24T17:25:14.044Z,10.38
2019-02-24T17:27:43.228Z,10.70
2019-02-24T17:30:12.901Z,8.78
2019-02-24T17:32:42.133Z,7.75
2019-02-24T17:35:11.515Z,7.40
2019-02-24T17:37:40.744Z,7.17
2019-02-24T17:40:11.381Z,7.55
2019-02-24T17:42:40.635Z,7.10
2019-02-24T17:45:11.200Z,8.75
2019-02-24T17:47:40.728Z,8.00
2019-02-24T17:50:10.693Z,8.70
2019-02-24T17:52:40.043Z,8.30
2019-02-24T17:55:12.467Z,7.15
2019-02-24T17:57:41.928Z,8.75
2019-02-24T18:00:17.452Z,8.65
2019-02-24T18:02:47.335Z,7.62
2019-02-24T18:05:17.251Z,6.87
2019-02-24T18:07:48.553Z,7.78
2019-02-24T18:10:17.820Z,7.55
2019-02-24T18:12:46.908Z,8.28
2019-02-24T18:15:16.272Z,8.28
2019-02-24T18:17:45.359Z,7.95
2019-02-24T18:20:14.681Z,7.50
2019-02-24T18:22:43.845Z,7.95
2019-02-24T18:25:13.212Z,7.35
2019-02-24T18:27:42.329Z,7.95
2019-02-24T18:30:14.858Z,8.58
2019-02-24T18:32:44.111Z,7.58
2019-02-24T18:35:13.375Z,7.70
2019-02-24T18:37:42.555Z,6.87
2019-02-24T18:40:14.518Z,7.40
2019-02-24T18:42:43.779Z,7.97
2019-02-24T18:45:13.717Z,7.53
2019-02-24T18:47:44.360Z,8.15
2019-02-24T18:50:13.690Z,8.13
2019-02-24T18:52:45.106Z,7.90
2019-02-24T18:55:14.417Z,7.15
2019-02-24T18:57:45.329Z,8.48
2019-02-24T19:00:15.636Z,7.55
2019-02-24T19:02:44.833Z,8.65
2019-02-24T19:05:14.167Z,8.75
2019-02-24T19:07:43.341Z,9.28
2019-02-24T19:10:14.191Z,8.53
2019-02-24T19:12:43.656Z,9.50
2019-02-24T19:15:15.322Z,10.60
2019-02-24T19:17:44.649Z,11.08
2019-02-24T19:20:15.752Z,10.23
2019-02-24T19:22:45.188Z,10.43
2019-02-24T19:25:15.939Z,11.83
2019-02-24T19:27:45.216Z,12.15
2019-02-24T19:30:15.080Z,9.75
2019-02-24T19:32:44.401Z,11.40
2019-02-24T19:35:14.143Z,10.78
2019-02-24T19:37:43.319Z,11.70
2019-02-24T19:40:13.626Z,10.88
2019-02-24T19:42:42.747Z,12.33
2019-02-24T19:45:13.123Z,10.68
2019-02-24T19:47:42.304Z,9.85
2019-02-24T19:50:15.527Z,9.60
2019-02-24T19:52:44.639Z,9.45
2019-02-24T19:55:14.023Z,11.28
2019-02-24T19:57:43.196Z,11.33
2019-02-24T20:00:15.613Z,11.22
2019-02-24T20:02:44.856Z,10.45
2019-02-24T20:05:14.156Z,10.65
2019-02-24T20:07:43.491Z,12.23
2019-02-24T20:10:15.393Z,11.88
2019-02-24T20:12:44.450Z,11.45
2019-02-24T20:15:14.250Z,10.58
2019-02-24T20:17:43.357Z,10.95
2019-02-24T20:20:13.044Z,11.22
2019-02-24T20:22:42.277Z,11.90
2019-02-24T20:25:12.019Z,12.40
2019-02-24T20:27:41.133Z,11.30
2019-02-24T20:30:21.654Z,11.83
2019-02-24T20:32:50.880Z,12.73
2019-02-24T20:35:20.076Z,14.78
2019-02-24T20:37:49.275Z,14.98
2019-02-24T20:40:18.459Z,15.78
2019-02-24T20:42:47.633Z,15.20
2019-02-24T20:45:17.992Z,15.28
2019-02-24T20:47:47.106Z,15.80
2019-02-24T20:50:17.407Z,13.20
2019-02-24T20:52:46.546Z,14.35
2019-02-24T20:55:15.872Z,14.07
2019-02-24T20:57:45.059Z,15.23
2019-02-24T21:00:17.994Z,15.40
2019-02-24T21:02:47.091Z,14.87
2019-02-24T21:05:16.217Z,14.53
2019-02-24T21:07:46.476Z,15.08
2019-02-24T21:10:15.740Z,16.95
2019-02-24T21:12:44.841Z,17.65
2019-02-24T21:15:14.180Z,17.20
2019-02-24T21:17:43.303Z,16.90
2019-02-24T21:20:15.187Z,17.95
2019-02-24T21:22:44.293Z,14.95
2019-02-24T21:25:13.710Z,15.30
2019-02-24T21:27:42.903Z,16.57
2019-02-24T21:30:14.227Z,14.93
2019-02-24T21:32:43.352Z,14.35
2019-02-24T21:35:12.775Z,13.45
2019-02-24T21:37:41.952Z,14.47
2019-02-24T21:40:11.648Z,13.98
2019-02-24T21:42:40.824Z,13.80
2019-02-24T21:45:12.603Z,13.40
2019-02-24T21:47:41.763Z,14.00
2019-02-24T21:50:12.386Z,12.95
2019-02-24T21:52:41.556Z,13.05
2019-02-24T21:55:11.452Z,13.05
2019-02-24T21:57:40.637Z,11.45
2019-02-24T22:00:12.704Z,12.68
2019-02-24T22:02:41.884Z,12.85
2019-02-24T22:05:11.217Z,13.83
2019-02-24T22:07:40.504Z,11.88
2019-02-24T22:10:10.421Z,12.13
2019-02-24T22:12:39.617Z,12.10
2019-02-24T22:15:11.272Z,12.68
2019-02-24T22:17:40.383Z,12.45
2019-02-24T22:20:09.697Z,11.57
2019-02-24T22:22:38.813Z,12.35
2019-02-24T22:25:08.984Z,12.37
2019-02-24T22:27:38.120Z,12.98
2019-02-24T22:30:09.724Z,13.15
2019-02-24T22:32:38.921Z,11.60
2019-02-24T22:35:08.420Z,12.07
2019-02-24T22:37:37.632Z,12.80
2019-02-24T22:40:08.384Z,11.53
2019-02-24T22:42:37.553Z,12.37
2019-02-24T22:45:08.617Z,13.72
2019-02-24T22:47:37.823Z,11.15
2019-02-24T22:50:07.670Z,12.28
2019-02-24T22:52:36.783Z,12.90
2019-02-24T22:55:06.292Z,10.90
2019-02-24T22:57:35.421Z,12.43
2019-02-24T23:00:11.765Z,11.55
2019-02-24T23:02:41.015Z,11.15
2019-02-24T23:05:11.751Z,11.12
2019-02-24T23:07:40.883Z,12.00
2019-02-24T23:10:10.293Z,11.03
2019-02-24T23:12:39.479Z,11.65
2019-02-24T23:15:08.721Z,11.83
2019-02-24T23:17:37.939Z,11.85
2019-02-24T23:20:07.235Z,11.78
2019-02-24T23:22:36.344Z,12.10
2019-02-24T23:25:05.740Z,11.55
2019-02-24T23:27:34.932Z,10.53
2019-02-24T23:30:05.107Z,11.78
2019-02-24T23:32:34.264Z,12.47
2019-02-24T23:35:03.401Z,12.93
2019-02-24T23:37:32.496Z,12.05
2019-02-24T23:40:02.892Z,12.43
2019-02-24T23:42:31.975Z,10.45
2019-02-24T23:45:09.872Z,10.72
2019-02-24T23:47:31.909Z,10.10
2019-02-24T23:50:01.006Z,10.95
2019-02-24T23:52:30.154Z,11.40
2019-02-24T23:54:59.320Z,10.23
2019-02-24T23:57:28.444Z,11.03
2019-02-24T23:59:57.596Z,11.48
